createdAt,value
2023-01-19T00:00:26.380Z,50.866810
2023-01-19T00:01:26.273Z,50.866768
2023-01-19T00:02:26.290Z,50.866772
2023-01-19T00:03:26.289Z,50.866867
2023-01-19T00:04:26.862Z,50.866837
2023-01-19T00:05:27.248Z,50.866890
2023-01-19T00:06:26.334Z,50.866879
2023-01-19T00:07:26.234Z,50.866901
2023-01-19T00:08:26.224Z,50.866833
2023-01-19T00:09:26.219Z,50.866825
2023-01-19T00:10:26.206Z,50.866776
2023-01-19T00:11:26.246Z,50.866722
2023-01-19T00:12:26.185Z,50.866798
2023-01-19T00:13:26.190Z,50.866844
2023-01-19T00:14:26.181Z,50.866890
2023-01-19T00:15:26.178Z,50.866882
2023-01-19T00:16:26.235Z,50.866886
2023-01-19T00:17:26.156Z,50.866913
2023-01-19T00:18:26.154Z,50.866810
2023-01-19T00:19:26.146Z,50.866783
2023-01-19T00:20:26.144Z,50.866783
2023-01-19T00:21:26.131Z,50.866909
2023-01-19T00:22:26.131Z,50.866924
2023-01-19T00:23:26.123Z,50.866863
2023-01-19T00:24:26.123Z,50.866859
2023-01-19T00:41:28.369Z,50.866806
2023-01-19T00:42:28.351Z,50.866737
2023-01-19T00:43:28.346Z,50.866760
2023-01-19T00:44:28.341Z,50.866791
2023-01-19T00:45:28.359Z,50.866798
2023-01-19T00:46:29.243Z,50.866779
2023-01-19T00:47:28.316Z,50.866764
2023-01-19T00:48:28.323Z,50.866791
2023-01-19T00:49:28.306Z,50.866783
2023-01-19T00:50:28.291Z,50.866802
2023-01-19T00:51:29.299Z,50.866840
2023-01-19T00:52:28.288Z,50.866745
2023-01-19T00:53:28.271Z,50.866734
2023-01-19T00:54:28.272Z,50.866753
2023-01-19T00:55:28.257Z,50.866730
2023-01-19T00:56:28.257Z,50.866806
2023-01-19T00:57:28.244Z,50.866615
2023-01-19T00:58:28.230Z,50.866611
2023-01-19T00:59:28.224Z,50.866768
2023-01-19T01:00:28.227Z,50.866814
2023-01-19T01:01:45.866Z,50.866653
2023-01-19T01:02:29.423Z,50.866711
2023-01-19T01:03:29.194Z,50.866791
2023-01-19T01:04:28.194Z,50.866848
2023-01-19T01:05:28.181Z,50.866844
2023-01-19T01:06:28.178Z,50.866791
2023-01-19T01:07:28.740Z,50.866802
2023-01-19T01:08:28.162Z,50.866760
2023-01-19T01:09:28.171Z,50.866760
2023-01-19T01:10:28.161Z,50.866714
2023-01-19T01:11:28.141Z,50.866703
2023-01-19T01:12:28.175Z,50.866711
2023-01-19T01:13:28.483Z,50.866714
2023-01-19T01:14:28.120Z,50.866837
2023-01-19T01:15:28.161Z,50.866772
2023-01-19T01:16:28.108Z,50.866684
2023-01-19T01:17:28.091Z,50.866749
2023-01-19T01:18:28.081Z,50.866852
2023-01-19T01:19:28.068Z,50.866760
2023-01-19T01:20:28.288Z,50.866783
2023-01-19T01:21:28.058Z,50.866699
2023-01-19T01:22:28.057Z,50.866764
2023-01-19T01:23:28.072Z,50.866798
2023-01-19T01:24:28.043Z,50.866859
2023-01-19T01:25:28.033Z,50.866783
2023-01-19T01:26:28.016Z,50.866707
2023-01-19T01:27:28.002Z,50.866791
2023-01-19T01:28:27.999Z,50.866825
2023-01-19T01:29:27.992Z,50.866833
2023-01-19T01:30:28.023Z,50.866772
2023-01-19T01:31:28.003Z,50.866837
2023-01-19T01:32:27.959Z,50.866653
2023-01-19T01:33:40.638Z,50.866608
2023-01-19T01:34:28.947Z,50.866684
2023-01-19T01:35:27.951Z,50.866768
2023-01-19T01:36:27.930Z,50.866863
2023-01-19T01:37:27.929Z,50.866817
2023-01-19T01:38:27.918Z,50.866791
2023-01-19T01:39:27.921Z,50.867004
2023-01-19T01:40:27.907Z,50.866978
2023-01-19T01:41:27.921Z,50.866829
2023-01-19T01:42:27.906Z,50.866623
2023-01-19T01:43:27.883Z,50.866894
2023-01-19T01:44:27.873Z,50.867115
2023-01-19T01:45:27.880Z,50.867062
2023-01-19T01:46:28.770Z,50.866852
2023-01-19T01:47:27.848Z,50.866905
2023-01-19T01:48:27.841Z,50.866802
2023-01-19T01:49:28.826Z,50.866844
2023-01-19T01:50:27.842Z,50.867123
2023-01-19T01:51:27.839Z,50.867039
2023-01-19T01:52:27.824Z,50.867123
2023-01-19T01:53:27.810Z,50.866959
2023-01-19T01:54:27.800Z,50.866959
2023-01-19T01:55:27.806Z,50.866985
2023-01-19T01:56:27.792Z,50.867065
2023-01-19T01:57:28.743Z,50.867260
2023-01-19T01:58:27.782Z,50.867134
2023-01-19T01:59:29.360Z,50.866928
2023-01-19T02:00:27.766Z,50.867126
2023-01-19T02:01:29.188Z,50.866997
2023-01-19T02:02:27.741Z,50.867062
2023-01-19T02:03:27.776Z,50.867195
2023-01-19T02:04:27.725Z,50.867275
2023-01-19T02:05:27.715Z,50.867126
2023-01-19T02:06:27.714Z,50.867039
2023-01-19T02:07:27.687Z,50.867119
2023-01-19T02:08:27.688Z,50.867149
2023-01-19T02:09:27.682Z,50.867359
2023-01-19T02:10:27.721Z,50.867092
2023-01-19T02:11:27.675Z,50.866684
2023-01-19T02:12:27.656Z,50.866821
2023-01-19T02:13:27.649Z,50.866787
2023-01-19T02:14:27.651Z,50.866787
2023-01-19T02:15:27.638Z,50.866737
2023-01-19T02:16:27.714Z,50.866795
2023-01-19T02:17:28.245Z,50.866779
2023-01-19T02:18:27.622Z,50.866787
2023-01-19T02:19:27.613Z,50.866844
2023-01-19T02:20:27.604Z,50.866791
2023-01-19T02:21:27.608Z,50.866802
2023-01-19T02:22:27.589Z,50.866798
2023-01-19T02:23:27.577Z,50.866737
2023-01-19T02:24:27.579Z,50.866707
2023-01-19T02:25:27.571Z,50.866745
2023-01-19T02:26:27.569Z,50.866791
2023-01-19T02:27:27.543Z,50.866760
2023-01-19T02:28:27.542Z,50.866768
2023-01-19T02:29:27.528Z,50.866714
2023-01-19T02:30:27.531Z,50.866726
2023-01-19T02:31:27.519Z,50.866768
2023-01-19T02:32:27.514Z,50.866859
2023-01-19T02:33:27.498Z,50.866791
2023-01-19T02:34:27.487Z,50.866840
2023-01-19T02:35:27.479Z,50.866829
2023-01-19T02:36:27.499Z,50.866825
2023-01-19T02:37:30.336Z,50.866852
2023-01-19T02:38:27.456Z,50.866852
2023-01-19T02:39:27.455Z,50.866837
2023-01-19T02:40:27.443Z,50.866821
2023-01-19T02:41:27.462Z,50.866802
2023-01-19T02:42:27.421Z,50.866714
2023-01-19T02:43:27.429Z,50.867111
2023-01-19T02:44:27.406Z,50.867046
2023-01-19T02:45:27.419Z,50.866844
2023-01-19T02:46:27.804Z,50.866745
2023-01-19T02:47:28.243Z,50.866798
2023-01-19T02:48:27.383Z,50.866787
2023-01-19T02:49:27.382Z,50.866787
2023-01-19T02:50:27.383Z,50.866821
2023-01-19T02:51:27.383Z,50.866772
2023-01-19T02:52:27.352Z,50.866974
2023-01-19T02:53:27.352Z,50.866821
2023-01-19T02:54:27.336Z,50.867138
2023-01-19T02:55:27.329Z,50.867100
2023-01-19T02:56:28.352Z,50.866829
2023-01-19T02:57:27.310Z,50.866810
2023-01-19T02:58:27.311Z,50.866783
2023-01-19T02:59:27.296Z,50.866837
2023-01-19T03:00:27.286Z,50.866825
2023-01-19T03:01:27.365Z,50.866833
2023-01-19T03:02:27.345Z,50.866821
2023-01-19T03:03:27.263Z,50.866795
2023-01-19T03:04:27.274Z,50.866756
2023-01-19T03:05:27.272Z,50.866692
2023-01-19T03:06:27.252Z,50.866737
2023-01-19T03:07:27.242Z,50.866753
2023-01-19T03:08:27.232Z,50.866776
2023-01-19T03:09:27.244Z,50.866791
2023-01-19T03:10:27.828Z,50.866718
2023-01-19T03:11:27.247Z,50.866745
2023-01-19T03:12:27.222Z,50.866848
2023-01-19T03:13:27.192Z,50.866859
2023-01-19T03:14:27.189Z,50.866890
2023-01-19T03:15:27.249Z,50.866852
2023-01-19T03:16:27.197Z,50.866844
2023-01-19T03:17:27.171Z,50.866894
2023-01-19T03:18:27.160Z,50.866856
2023-01-19T03:19:27.188Z,50.866810
2023-01-19T03:20:27.138Z,50.866699
2023-01-19T03:21:27.141Z,50.866634
2023-01-19T03:22:27.135Z,50.866653
2023-01-19T03:23:27.116Z,50.866669
2023-01-19T03:24:27.106Z,50.866680
2023-01-19T03:25:27.129Z,50.866722
2023-01-19T03:26:27.090Z,50.866722
2023-01-19T03:27:27.123Z,50.866734
2023-01-19T03:28:27.084Z,50.866676
2023-01-19T03:29:27.073Z,50.866695
2023-01-19T03:30:27.091Z,50.866688
2023-01-19T03:31:27.054Z,50.866741
2023-01-19T03:32:28.048Z,50.866684
2023-01-19T03:33:27.080Z,50.866634
2023-01-19T03:34:27.028Z,50.866676
2023-01-19T03:35:27.029Z,50.866661
2023-01-19T03:36:27.031Z,50.866768
2023-01-19T03:37:27.012Z,50.866776
2023-01-19T03:38:26.988Z,50.866760
2023-01-19T03:39:27.994Z,50.866787
2023-01-19T03:40:26.982Z,50.866688
2023-01-19T03:41:26.972Z,50.866787
2023-01-19T03:42:26.967Z,50.866688
2023-01-19T03:43:26.953Z,50.866520
2023-01-19T03:44:26.956Z,50.866512
2023-01-19T03:45:26.948Z,50.866680
2023-01-19T03:46:27.037Z,50.866795
2023-01-19T03:47:26.935Z,50.866768
2023-01-19T03:48:26.919Z,50.866821
2023-01-19T03:49:26.914Z,50.866852
2023-01-19T03:50:26.906Z,50.866760
2023-01-19T03:51:26.906Z,50.866791
2023-01-19T03:52:26.920Z,50.866722
2023-01-19T03:53:26.882Z,50.866768
2023-01-19T03:54:26.873Z,50.866859
2023-01-19T03:55:26.863Z,50.866894
2023-01-19T03:56:26.858Z,50.866848
2023-01-19T03:57:26.855Z,50.866783
2023-01-19T03:58:26.841Z,50.866806
2023-01-19T03:59:26.844Z,50.866772
2023-01-19T04:00:26.831Z,50.866741
2023-01-19T04:01:26.933Z,50.866657
2023-01-19T04:02:26.896Z,50.866714
2023-01-19T04:03:26.837Z,50.866657
2023-01-19T04:04:26.815Z,50.866657
2023-01-19T04:05:26.798Z,50.866631
2023-01-19T04:06:26.794Z,50.866634
2023-01-19T04:07:26.768Z,50.866676
2023-01-19T04:08:27.775Z,50.866615
2023-01-19T04:09:27.759Z,50.866619
2023-01-19T04:10:26.774Z,50.866730
2023-01-19T04:11:26.795Z,50.866657
2023-01-19T04:12:26.734Z,50.866657
2023-01-19T04:13:26.729Z,50.866646
2023-01-19T04:14:26.721Z,50.866619
2023-01-19T04:15:26.715Z,50.866711
2023-01-19T04:16:26.712Z,50.866722
2023-01-19T04:17:26.699Z,50.866753
2023-01-19T04:18:26.694Z,50.866688
2023-01-19T04:19:27.263Z,50.866688
2023-01-19T04:20:26.669Z,50.866676
2023-01-19T04:21:26.665Z,50.866734
2023-01-19T04:22:26.664Z,50.866714
2023-01-19T04:23:26.655Z,50.866722
2023-01-19T04:24:26.637Z,50.866707
2023-01-19T04:25:26.642Z,50.866692
2023-01-19T04:26:26.627Z,50.866676
2023-01-19T04:27:26.610Z,50.866711
2023-01-19T04:28:26.625Z,50.866684
2023-01-19T04:29:26.599Z,50.866673
2023-01-19T04:30:26.594Z,50.866619
2023-01-19T04:31:26.637Z,50.866692
2023-01-19T04:32:26.576Z,50.866661
2023-01-19T04:33:26.569Z,50.866714
2023-01-19T04:34:26.586Z,50.866711
2023-01-19T04:35:26.570Z,50.866726
2023-01-19T04:36:26.572Z,50.866806
2023-01-19T04:37:27.545Z,50.866760
2023-01-19T04:38:26.633Z,50.866737
2023-01-19T04:39:26.514Z,50.866722
2023-01-19T04:40:26.526Z,50.866726
2023-01-19T04:41:26.509Z,50.866718
2023-01-19T04:42:26.508Z,50.866695
2023-01-19T04:43:26.481Z,50.866692
2023-01-19T04:44:26.471Z,50.866688
2023-01-19T04:45:26.467Z,50.866684
2023-01-19T04:46:26.555Z,50.866661
2023-01-19T04:47:27.340Z,50.866657
2023-01-19T04:48:26.447Z,50.866673
2023-01-19T04:49:26.437Z,50.866680
2023-01-19T04:50:26.428Z,50.866669
2023-01-19T04:51:26.432Z,50.866661
2023-01-19T04:52:26.443Z,50.866676
2023-01-19T04:53:26.416Z,50.866695
2023-01-19T04:54:26.466Z,50.866673
2023-01-19T04:55:26.425Z,50.866665
2023-01-19T04:56:26.403Z,50.866680
2023-01-19T04:57:26.373Z,50.866657
2023-01-19T04:58:26.369Z,50.866665
2023-01-19T04:59:26.399Z,50.866661
2023-01-19T05:00:26.362Z,50.866669
2023-01-19T05:01:26.478Z,50.866741
2023-01-19T05:02:26.341Z,50.866680
2023-01-19T05:03:26.690Z,50.866688
2023-01-19T05:04:27.329Z,50.866661
2023-01-19T05:05:26.312Z,50.866653
2023-01-19T05:06:26.320Z,50.866653
2023-01-19T05:07:26.299Z,50.866650
2023-01-19T05:08:26.310Z,50.866680
2023-01-19T05:09:26.293Z,50.866673
2023-01-19T05:10:26.296Z,50.866669
2023-01-19T05:11:26.285Z,50.866669
2023-01-19T05:12:26.279Z,50.866673
2023-01-19T05:13:26.258Z,50.866631
2023-01-19T05:14:26.277Z,50.866669
2023-01-19T05:15:26.243Z,50.866688
2023-01-19T05:16:26.341Z,50.866760
2023-01-19T05:17:26.232Z,50.866753
2023-01-19T05:18:26.216Z,50.866791
2023-01-19T05:19:26.211Z,50.866707
2023-01-19T05:20:26.216Z,50.866730
2023-01-19T05:21:26.204Z,50.866760
2023-01-19T05:22:26.188Z,50.866787
2023-01-19T05:23:26.239Z,50.866749
2023-01-19T05:24:26.169Z,50.866776
2023-01-19T05:25:26.156Z,50.866875
2023-01-19T05:26:26.152Z,50.866795
2023-01-19T05:27:26.158Z,50.866753
2023-01-19T05:28:26.141Z,50.866676
2023-01-19T05:29:26.156Z,50.866596
2023-01-19T05:30:26.132Z,50.866615
2023-01-19T05:31:26.259Z,50.866611
2023-01-19T05:32:26.132Z,50.866611
2023-01-19T05:33:26.095Z,50.866745
2023-01-19T05:34:26.858Z,50.866596
2023-01-19T05:35:35.401Z,50.866611
2023-01-19T05:36:28.075Z,50.866520
2023-01-19T05:37:26.067Z,50.866489
2023-01-19T05:38:34.473Z,50.866566
2023-01-19T05:39:28.777Z,50.866581
2023-01-19T05:40:26.086Z,50.866493
2023-01-19T05:41:26.032Z,50.866447
2023-01-19T05:42:26.032Z,50.866592
2023-01-19T05:43:26.023Z,50.866474
2023-01-19T05:44:26.018Z,50.866558
2023-01-19T05:45:26.001Z,50.866352
2023-01-19T05:46:26.057Z,50.866226
2023-01-19T05:47:27.843Z,50.866280
2023-01-19T05:48:25.995Z,50.866444
2023-01-19T05:49:25.980Z,50.866810
2023-01-19T05:50:25.969Z,50.866959
2023-01-19T05:51:25.956Z,50.866798
2023-01-19T05:52:25.944Z,50.866848
2023-01-19T05:53:25.962Z,50.866768
2023-01-19T05:54:25.950Z,50.866760
2023-01-19T05:55:25.929Z,50.866688
2023-01-19T05:56:25.936Z,50.867142
2023-01-19T05:57:25.912Z,50.867249
2023-01-19T05:58:25.898Z,50.867313
2023-01-19T05:59:25.895Z,50.867363
2023-01-19T06:00:25.892Z,50.867256
2023-01-19T06:01:25.930Z,50.867405
2023-01-19T06:02:25.956Z,50.867470
2023-01-19T06:03:25.912Z,50.867764
2023-01-19T06:04:25.847Z,50.868103
2023-01-19T06:05:26.875Z,50.868114
2023-01-19T06:06:25.838Z,50.868023
2023-01-19T06:07:28.212Z,50.867699
2023-01-19T06:08:25.834Z,50.867687
2023-01-19T06:09:25.820Z,50.867657
2023-01-19T06:10:25.823Z,50.867496
2023-01-19T06:11:25.793Z,50.867462
2023-01-19T06:12:25.804Z,50.867405
2023-01-19T06:13:25.787Z,50.867325
2023-01-19T06:14:25.787Z,50.867302
2023-01-19T06:15:25.778Z,50.867264
2023-01-19T06:16:25.837Z,50.867271
2023-01-19T06:17:25.750Z,50.867241
2023-01-19T06:18:25.742Z,50.867306
2023-01-19T06:19:25.750Z,50.867310
2023-01-19T06:20:25.738Z,50.867165
2023-01-19T06:21:25.722Z,50.867123
2023-01-19T06:22:26.721Z,50.867069
2023-01-19T06:23:25.718Z,50.867039
2023-01-19T06:24:26.723Z,50.867046
2023-01-19T06:25:25.692Z,50.867085
2023-01-19T06:26:25.691Z,50.867062
2023-01-19T06:27:25.679Z,50.867046
2023-01-19T06:28:25.694Z,50.867001
2023-01-19T06:29:27.039Z,50.867016
2023-01-19T06:30:25.661Z,50.867035
2023-01-19T06:31:26.317Z,50.867001
2023-01-19T06:32:25.643Z,50.866985
2023-01-19T06:33:25.623Z,50.866966
2023-01-19T06:34:25.613Z,50.866970
2023-01-19T06:35:25.616Z,50.866970
2023-01-19T06:36:25.594Z,50.866959
2023-01-19T06:37:25.588Z,50.867012
2023-01-19T06:38:25.612Z,50.866978
2023-01-19T06:39:25.585Z,50.866951
2023-01-19T06:40:26.340Z,50.866955
2023-01-19T06:41:25.577Z,50.866920
2023-01-19T06:42:25.563Z,50.866932
2023-01-19T06:43:25.555Z,50.866909
2023-01-19T06:44:25.545Z,50.866879
2023-01-19T06:45:26.391Z,50.866882
2023-01-19T06:46:26.284Z,50.866898
2023-01-19T06:47:25.537Z,50.866936
2023-01-19T06:48:25.521Z,50.866924
2023-01-19T06:49:25.505Z,50.866928
2023-01-19T06:50:26.277Z,50.866894
2023-01-19T06:51:25.513Z,50.866901
2023-01-19T06:52:25.480Z,50.866898
2023-01-19T06:53:25.470Z,50.866901
2023-01-19T06:54:25.473Z,50.866882
2023-01-19T06:55:25.463Z,50.866913
2023-01-19T06:56:25.451Z,50.866924
2023-01-19T06:57:25.439Z,50.866917
2023-01-19T06:58:25.447Z,50.866909
2023-01-19T06:59:25.871Z,50.866901
2023-01-19T07:00:25.417Z,50.866898
2023-01-19T07:01:25.518Z,50.866886
2023-01-19T07:02:27.952Z,50.866890
2023-01-19T07:03:25.494Z,50.866901
2023-01-19T07:04:26.279Z,50.866852
2023-01-19T07:05:25.380Z,50.866817
2023-01-19T07:06:26.362Z,50.866840
2023-01-19T07:07:25.362Z,50.866840
2023-01-19T07:08:25.361Z,50.866810
2023-01-19T07:09:25.360Z,50.866798
2023-01-19T07:10:25.351Z,50.866806
2023-01-19T07:11:32.296Z,50.866848
2023-01-19T07:12:26.330Z,50.866817
2023-01-19T07:13:25.337Z,50.866810
2023-01-19T07:14:25.303Z,50.866798
2023-01-19T07:15:25.334Z,50.866779
2023-01-19T07:16:25.380Z,50.866810
2023-01-19T07:17:25.286Z,50.866829
2023-01-19T07:18:25.288Z,50.866859
2023-01-19T07:19:25.280Z,50.866817
2023-01-19T07:20:25.266Z,50.866814
2023-01-19T07:21:25.267Z,50.866795
2023-01-19T07:22:25.252Z,50.866814
2023-01-19T07:23:25.236Z,50.866806
2023-01-19T07:24:25.295Z,50.866741
2023-01-19T07:25:25.252Z,50.866753
2023-01-19T07:26:25.228Z,50.866821
2023-01-19T07:27:25.242Z,50.866814
2023-01-19T07:28:25.203Z,50.866760
2023-01-19T07:29:25.199Z,50.866795
2023-01-19T07:30:25.228Z,50.866817
2023-01-19T07:31:25.282Z,50.866817
2023-01-19T07:32:25.188Z,50.866833
2023-01-19T07:33:25.174Z,50.866837
2023-01-19T07:34:25.207Z,50.866882
2023-01-19T07:35:25.145Z,50.866856
2023-01-19T07:36:25.859Z,50.866959
2023-01-19T07:37:25.788Z,50.866947
2023-01-19T07:38:25.122Z,50.866913
2023-01-19T07:39:25.366Z,50.866871
2023-01-19T07:40:25.113Z,50.866852
2023-01-19T07:41:25.098Z,50.866772
2023-01-19T07:42:25.093Z,50.866814
2023-01-19T07:43:25.079Z,50.866764
2023-01-19T07:44:25.093Z,50.866753
2023-01-19T07:45:27.149Z,50.866859
2023-01-19T07:46:25.215Z,50.866829
2023-01-19T07:47:25.054Z,50.866837
2023-01-19T07:48:25.783Z,50.866814
2023-01-19T07:49:25.045Z,50.866692
2023-01-19T07:50:25.033Z,50.866787
2023-01-19T07:51:25.026Z,50.866802
2023-01-19T07:52:25.014Z,50.866814
2023-01-19T07:53:25.038Z,50.866798
2023-01-19T07:54:25.000Z,50.866795
2023-01-19T07:55:24.997Z,50.866760
2023-01-19T07:56:24.988Z,50.866821
2023-01-19T07:57:24.984Z,50.866745
2023-01-19T07:58:24.977Z,50.866795
2023-01-19T07:59:24.977Z,50.866791
2023-01-19T08:00:24.984Z,50.866795
2023-01-19T08:01:25.866Z,50.866768
2023-01-19T08:02:26.932Z,50.866779
2023-01-19T08:03:24.936Z,50.866787
2023-01-19T08:04:24.938Z,50.866783
2023-01-19T08:05:26.788Z,50.866821
2023-01-19T08:06:27.792Z,50.866802
2023-01-19T08:07:24.918Z,50.866760
2023-01-19T08:08:24.909Z,50.866795
2023-01-19T08:09:24.881Z,50.866737
2023-01-19T08:10:24.930Z,50.866718
2023-01-19T08:11:25.858Z,50.866730
2023-01-19T08:12:26.782Z,50.866787
2023-01-19T08:13:24.851Z,50.866737
2023-01-19T08:14:24.876Z,50.866703
2023-01-19T08:15:25.051Z,50.866756
2023-01-19T08:16:24.843Z,50.866741
2023-01-19T08:17:24.831Z,50.866802
2023-01-19T08:18:24.813Z,50.866859
2023-01-19T08:19:24.805Z,50.866776
2023-01-19T08:20:24.873Z,50.866741
2023-01-19T08:21:24.799Z,50.866692
2023-01-19T08:22:24.795Z,50.866810
2023-01-19T08:23:24.787Z,50.866741
2023-01-19T08:24:25.297Z,50.866745
2023-01-19T08:25:24.780Z,50.866829
2023-01-19T08:26:24.753Z,50.866760
2023-01-19T08:27:24.780Z,50.866779
2023-01-19T08:28:24.893Z,50.866871
2023-01-19T08:29:24.720Z,50.866913
2023-01-19T08:30:24.718Z,50.866852
2023-01-19T08:31:25.162Z,50.866901
2023-01-19T08:32:26.445Z,50.866852
2023-01-19T08:33:24.701Z,50.866882
2023-01-19T08:34:24.967Z,50.866920
2023-01-19T08:35:24.684Z,50.866894
2023-01-19T08:36:24.667Z,50.866890
2023-01-19T08:37:24.662Z,50.866859
2023-01-19T08:38:24.697Z,50.866867
2023-01-19T08:39:24.648Z,50.866844
2023-01-19T08:40:24.651Z,50.866776
2023-01-19T08:41:24.633Z,50.866741
2023-01-19T08:42:24.636Z,50.866795
2023-01-19T08:43:24.615Z,50.866829
2023-01-19T08:44:24.616Z,50.866776
2023-01-19T08:45:25.283Z,50.866825
2023-01-19T08:46:24.651Z,50.866863
2023-01-19T08:47:24.622Z,50.866859
2023-01-19T08:48:24.592Z,50.866890
2023-01-19T08:49:24.564Z,50.866913
2023-01-19T08:50:24.593Z,50.866989
2023-01-19T08:51:24.569Z,50.866932
2023-01-19T08:52:24.548Z,50.866882
2023-01-19T08:53:24.538Z,50.866955
2023-01-19T08:54:26.296Z,50.866898
2023-01-19T08:55:24.514Z,50.866779
2023-01-19T08:56:24.515Z,50.866611
2023-01-19T08:57:24.506Z,50.866680
2023-01-19T08:58:24.529Z,50.866932
2023-01-19T08:59:24.495Z,50.866814
2023-01-19T09:00:24.480Z,50.866737
2023-01-19T09:01:24.584Z,50.866787
2023-01-19T09:02:24.527Z,50.866879
2023-01-19T09:06:32.377Z,50.866753
2023-01-19T09:07:33.997Z,50.866695
2023-01-19T09:08:32.401Z,50.866699
2023-01-19T09:09:32.356Z,50.866684
2023-01-19T09:10:32.371Z,50.866726
2023-01-19T09:11:32.357Z,50.866650
2023-01-19T09:12:32.346Z,50.866657
2023-01-19T09:13:32.674Z,50.866688
2023-01-19T09:14:32.339Z,50.866680
2023-01-19T09:15:32.314Z,50.866760
2023-01-19T09:16:32.304Z,50.866741
2023-01-19T09:17:33.227Z,50.866730
2023-01-19T09:18:32.310Z,50.866688
2023-01-19T09:19:33.753Z,50.866768
2023-01-19T09:20:32.272Z,50.866741
2023-01-19T09:21:33.270Z,50.866795
2023-01-19T09:22:32.250Z,50.866833
2023-01-19T09:23:32.242Z,50.866795
2023-01-19T09:24:33.167Z,50.866787
2023-01-19T09:25:32.238Z,50.866798
2023-01-19T09:26:33.163Z,50.866779
2023-01-19T09:27:33.219Z,50.866756
2023-01-19T09:28:32.225Z,50.866806
2023-01-19T09:29:32.231Z,50.866791
2023-01-19T09:30:34.792Z,50.866814
2023-01-19T09:31:32.225Z,50.866737
2023-01-19T09:32:32.181Z,50.866718
2023-01-19T09:33:32.181Z,50.866726
2023-01-19T09:34:32.179Z,50.866756
2023-01-19T09:35:32.156Z,50.866798
2023-01-19T09:36:32.160Z,50.866741
2023-01-19T09:37:32.137Z,50.866722
2023-01-19T09:38:32.143Z,50.866764
2023-01-19T09:39:32.160Z,50.866734
2023-01-19T09:40:32.143Z,50.866798
2023-01-19T09:41:32.110Z,50.866814
2023-01-19T09:42:32.103Z,50.866783
2023-01-19T09:43:32.106Z,50.866703
2023-01-19T09:44:32.087Z,50.866692
2023-01-19T09:45:32.107Z,50.866760
2023-01-19T09:46:32.227Z,50.866749
2023-01-19T09:47:32.082Z,50.866814
2023-01-19T09:48:32.068Z,50.866734
2023-01-19T09:49:32.169Z,50.866634
2023-01-19T09:50:32.062Z,50.866623
2023-01-19T09:51:32.035Z,50.866718
2023-01-19T09:52:32.049Z,50.866688
2023-01-19T09:53:32.012Z,50.866714
2023-01-19T09:54:32.018Z,50.866680
2023-01-19T09:55:32.009Z,50.866673
2023-01-19T09:56:32.743Z,50.866695
2023-01-19T09:57:31.986Z,50.866756
2023-01-19T09:58:31.977Z,50.866703
2023-01-19T09:59:31.995Z,50.866699
2023-01-19T10:00:31.985Z,50.866653
2023-01-19T10:01:35.147Z,50.866688
2023-01-19T10:02:31.945Z,50.866714
2023-01-19T10:03:31.947Z,50.866653
2023-01-19T10:04:31.946Z,50.866657
2023-01-19T10:05:31.935Z,50.866699
2023-01-19T10:06:32.924Z,50.866722
2023-01-19T10:07:31.910Z,50.866695
2023-01-19T10:08:31.894Z,50.866688
2023-01-19T10:09:31.899Z,50.866718
2023-01-19T10:10:31.900Z,50.866741
2023-01-19T10:11:41.875Z,50.866745
2023-01-19T10:12:33.931Z,50.866753
2023-01-19T10:13:31.854Z,50.866756
2023-01-19T10:14:32.852Z,50.866753
2023-01-19T10:15:31.853Z,50.866737
2023-01-19T10:16:31.858Z,50.866753
2023-01-19T10:17:31.844Z,50.866760
2023-01-19T10:18:31.851Z,50.866745
2023-01-19T10:19:31.816Z,50.866741
2023-01-19T10:20:31.883Z,50.866756
2023-01-19T10:21:32.782Z,50.866798
2023-01-19T10:22:32.792Z,50.866745
2023-01-19T10:23:33.675Z,50.866745
2023-01-19T10:24:33.809Z,50.866756
2023-01-19T10:25:31.905Z,50.866745
2023-01-19T10:26:32.769Z,50.866734
2023-01-19T10:27:32.758Z,50.866730
2023-01-19T10:28:31.790Z,50.866730
2023-01-19T10:29:31.753Z,50.866749
2023-01-19T10:30:31.752Z,50.866737
2023-01-19T10:31:33.750Z,50.866718
2023-01-19T10:32:31.737Z,50.866718
2023-01-19T10:33:31.712Z,50.866726
2023-01-19T10:34:31.741Z,50.866722
2023-01-19T10:35:31.731Z,50.866734
2023-01-19T10:36:31.679Z,50.866714
2023-01-19T10:37:31.693Z,50.866722
2023-01-19T10:38:31.669Z,50.866726
2023-01-19T10:39:32.158Z,50.866714
2023-01-19T10:40:31.659Z,50.866711
2023-01-19T10:41:31.682Z,50.866707
2023-01-19T10:42:31.662Z,50.866730
2023-01-19T10:43:31.654Z,50.866718
2023-01-19T10:44:31.795Z,50.866711
2023-01-19T10:45:34.879Z,50.866714
2023-01-19T10:46:31.653Z,50.866726
2023-01-19T10:47:32.217Z,50.866726
2023-01-19T10:48:31.585Z,50.866726
2023-01-19T10:49:31.697Z,50.866688
2023-01-19T10:50:31.578Z,50.866718
2023-01-19T10:51:31.564Z,50.866711
2023-01-19T10:52:31.569Z,50.866734
2023-01-19T10:53:33.180Z,50.866718
2023-01-19T10:54:31.607Z,50.866756
2023-01-19T10:55:31.573Z,50.866768
2023-01-19T10:56:31.518Z,50.866726
2023-01-19T10:57:31.618Z,50.866749
2023-01-19T10:58:31.511Z,50.866718
2023-01-19T10:59:31.577Z,50.866692
2023-01-19T11:00:31.529Z,50.866741
2023-01-19T11:01:31.679Z,50.866749
2023-01-19T11:02:31.705Z,50.866753
2023-01-19T11:03:31.555Z,50.866734
2023-01-19T11:04:31.512Z,50.866726
2023-01-19T11:05:31.594Z,50.866734
2023-01-19T11:06:32.224Z,50.866776
2023-01-19T11:07:31.451Z,50.866753
2023-01-19T11:08:31.495Z,50.866703
2023-01-19T11:09:31.434Z,50.866745
2023-01-19T11:10:31.449Z,50.866772
2023-01-19T11:11:31.416Z,50.866737
2023-01-19T11:12:31.407Z,50.866737
2023-01-19T11:13:31.417Z,50.866707
2023-01-19T11:14:31.378Z,50.866714
2023-01-19T11:15:32.362Z,50.866703
2023-01-19T11:16:31.435Z,50.866718
2023-01-19T11:17:32.311Z,50.866707
2023-01-19T11:18:31.454Z,50.866726
2023-01-19T11:19:31.338Z,50.866730
2023-01-19T11:20:31.352Z,50.866734
2023-01-19T11:21:33.282Z,50.866714
2023-01-19T11:22:31.331Z,50.866726
2023-01-19T11:23:31.781Z,50.866707
2023-01-19T11:24:31.303Z,50.866711
2023-01-19T11:31:39.741Z,50.866837
2023-01-19T11:32:39.724Z,50.866741
2023-01-19T11:33:39.780Z,50.866779
2023-01-19T11:34:40.713Z,50.866772
2023-01-19T11:35:43.046Z,50.866749
2023-01-19T11:36:39.671Z,50.866734
2023-01-19T11:37:40.682Z,50.866741
2023-01-19T11:38:39.675Z,50.866764
2023-01-19T11:39:39.653Z,50.866753
2023-01-19T11:40:40.512Z,50.866783
2023-01-19T11:41:40.590Z,50.866776
2023-01-19T11:47:47.152Z,50.866776
2023-01-19T11:48:47.051Z,50.866764
2023-01-19T11:49:47.018Z,50.866749
2023-01-19T11:50:47.008Z,50.866730
2023-01-19T11:51:47.057Z,50.866776
2023-01-19T21:30:36.502Z,50.866718
2023-01-19T21:31:36.765Z,50.866699
2023-01-19T21:32:36.499Z,50.866722